createdAt,value
2023-05-19T00:01:15.922Z,9.10
2023-05-19T00:06:38.285Z,9.60
2023-05-19T00:12:41.570Z,10.60
2023-05-19T00:19:02.844Z,10.80
2023-05-19T00:25:36.203Z,9.70
2023-05-19T00:31:57.648Z,9.00
2023-05-19T00:37:42.467Z,9.30
2023-05-19T00:42:57.670Z,10.80
2023-05-19T00:49:00.642Z,10.70
2023-05-19T00:55:21.912Z,11.00
2023-05-19T01:00:52.312Z,11.60
2023-05-19T01:06:57.362Z,10.30
2023-05-19T01:12:25.570Z,10.70
2023-05-19T01:18:30.055Z,10.90
2023-05-19T01:24:45.712Z,9.90
2023-05-19T01:31:12.305Z,9.60
2023-05-19T01:36:37.960Z,9.90
2023-05-19T01:41:44.658Z,9.10
2023-05-19T01:47:54.333Z,8.00
2023-05-19T01:54:00.168Z,8.30
2023-05-19T01:59:37.784Z,9.40
2023-05-19T02:05:05.446Z,8.60
2023-05-19T02:10:34.313Z,8.60
2023-05-19T02:16:02.602Z,8.20
2023-05-19T02:21:41.452Z,7.30
2023-05-19T02:28:10.169Z,8.10
2023-05-19T02:34:14.336Z,6.70
2023-05-19T02:40:37.510Z,8.50
2023-05-19T02:46:58.853Z,6.40
2023-05-19T02:53:13.294Z,6.30
2023-05-19T02:59:34.700Z,6.50
2023-05-19T03:06:08.376Z,7.00
2023-05-19T03:12:29.605Z,6.60
2023-05-19T03:24:49.274Z,7.00
2023-05-19T03:30:14.894Z,6.80
2023-05-19T03:37:09.613Z,7.30
2023-05-19T03:43:33.628Z,7.90
2023-05-19T03:49:57.067Z,8.20
2023-05-19T03:56:53.522Z,8.30
2023-05-19T04:03:14.996Z,8.50
2023-05-19T04:08:58.130Z,9.40
2023-05-19T04:14:56.055Z,9.50
2023-05-19T04:20:28.242Z,9.90
2023-05-19T04:25:59.792Z,9.90
2023-05-19T04:31:27.062Z,8.80
2023-05-19T04:37:31.352Z,8.20
2023-05-19T04:44:15.233Z,10.00
2023-05-19T04:50:56.984Z,9.20
2023-05-19T04:57:18.902Z,10.30
2023-05-19T05:02:47.451Z,9.40
2023-05-19T05:08:04.111Z,10.10
2023-05-19T05:13:12.629Z,11.40
2023-05-19T05:18:17.802Z,11.00
2023-05-19T05:24:19.667Z,11.70
2023-05-19T05:30:45.882Z,11.00
2023-05-19T06:07:07.269Z,12.20
2023-05-19T06:12:22.366Z,11.70
2023-05-19T06:17:26.205Z,12.20
2023-05-19T06:22:28.320Z,10.60
2023-05-19T06:27:33.286Z,10.50
2023-05-19T06:33:20.651Z,8.90
2023-05-19T06:39:06.664Z,9.80
2023-05-19T06:45:31.093Z,9.30
2023-05-19T06:51:10.332Z,10.10
2023-05-19T06:56:23.084Z,10.50
2023-05-19T07:02:04.723Z,12.60
2023-05-19T07:08:10.016Z,13.10
2023-05-19T07:14:40.974Z,13.30
2023-05-19T07:21:09.185Z,13.70
2023-05-19T07:27:52.809Z,13.20
2023-05-19T07:34:13.861Z,12.40
2023-05-19T07:40:19.980Z,12.80
2023-05-19T07:45:49.864Z,13.20
2023-05-19T07:50:53.415Z,10.90
2023-05-19T07:55:58.795Z,12.00
2023-05-19T08:02:00.647Z,13.60
2023-05-19T08:08:26.220Z,13.80
2023-05-19T08:14:47.884Z,12.50
2023-05-19T08:21:09.212Z,11.10
2023-05-19T08:27:40.380Z,12.40
2023-05-19T08:34:02.105Z,12.80
2023-05-19T08:40:07.796Z,12.50
2023-05-19T08:46:23.950Z,12.80
2023-05-19T08:52:09.479Z,12.70
2023-05-19T08:58:30.596Z,11.70
2023-05-19T09:04:58.931Z,10.20
2023-05-19T09:11:22.950Z,11.40
2023-05-19T09:17:47.599Z,10.60
2023-05-19T09:24:13.429Z,11.60
2023-05-19T09:30:31.477Z,9.80
2023-05-19T09:35:39.364Z,10.90
2023-05-19T09:41:22.501Z,11.50
2023-05-19T09:46:40.454Z,11.80
2023-05-19T09:52:50.439Z,11.70
2023-05-19T09:59:14.778Z,13.30
2023-05-19T10:05:36.294Z,9.20
2023-05-19T10:11:57.569Z,11.80
2023-05-19T10:18:40.198Z,13.50
2023-05-19T10:24:39.710Z,12.60
2023-05-19T10:29:47.961Z,10.80
2023-05-19T10:35:28.450Z,12.10
2023-05-19T10:41:59.299Z,13.20
2023-05-19T10:47:00.981Z,11.80
2023-05-19T10:52:20.853Z,12.20
2023-05-19T10:57:33.467Z,10.30
2023-05-19T11:02:42.293Z,11.10
2023-05-19T11:07:59.479Z,10.80
2023-05-19T11:13:22.693Z,10.50
2023-05-19T11:18:30.800Z,11.10
2023-05-19T11:23:45.400Z,11.00
2023-05-19T11:28:47.626Z,11.80
2023-05-19T11:34:48.830Z,12.00
2023-05-19T11:41:20.912Z,12.10
2023-05-19T11:47:56.383Z,11.90
2023-05-19T11:53:23.483Z,14.20
2023-05-19T11:59:44.913Z,14.70
2023-05-19T12:05:09.701Z,13.70
2023-05-19T12:10:19.279Z,14.90
2023-05-19T12:15:22.241Z,16.10
2023-05-19T12:21:23.688Z,16.80
2023-05-19T12:26:38.769Z,15.20
2023-05-19T12:31:40.988Z,13.80
2023-05-19T12:37:42.508Z,10.70
2023-05-19T12:44:03.613Z,14.60
2023-05-19T12:50:37.446Z,15.90
2023-05-19T12:57:17.347Z,16.10
2023-05-19T13:03:09.220Z,15.30
2023-05-19T13:09:31.069Z,15.70
2023-05-19T13:15:26.489Z,14.30
2023-05-19T13:21:00.544Z,15.50
2023-05-19T13:26:12.618Z,14.00
2023-05-19T13:31:14.552Z,13.90
2023-05-19T13:36:16.326Z,13.90
2023-05-19T13:41:25.469Z,13.50
2023-05-19T13:47:26.906Z,12.40
2023-05-19T13:53:48.027Z,11.60
2023-05-19T13:59:16.576Z,12.00
2023-05-19T14:05:17.660Z,13.30
2023-05-19T14:11:41.495Z,13.90
2023-05-19T14:17:06.199Z,13.00
2023-05-19T14:22:08.239Z,12.50
2023-05-19T14:27:09.909Z,13.20
2023-05-19T14:32:30.438Z,13.80
2023-05-19T14:37:33.262Z,12.60
2023-05-19T14:42:37.924Z,14.10
2023-05-19T14:48:57.768Z,14.00
2023-05-19T14:55:18.754Z,13.90
2023-05-19T15:01:40.091Z,15.90
2023-05-19T15:08:02.044Z,16.30
2023-05-19T15:13:25.822Z,18.00
2023-05-19T15:18:29.756Z,15.10
2023-05-19T15:23:34.414Z,14.30
2023-05-19T15:28:38.913Z,15.30
2023-05-19T15:33:41.440Z,16.40
2023-05-19T15:38:45.787Z,16.90
2023-05-19T15:43:52.923Z,17.60
2023-05-19T15:48:55.196Z,17.60
2023-05-19T15:54:00.571Z,17.40
2023-05-19T15:59:02.279Z,17.00
2023-05-19T16:04:07.216Z,17.20
2023-05-19T16:09:16.028Z,17.00
2023-05-19T16:14:45.420Z,17.70
2023-05-19T16:24:48.925Z,21.40
2023-05-19T16:29:50.335Z,20.90
2023-05-19T16:34:52.727Z,22.90
2023-05-19T16:41:13.973Z,17.40
2023-05-19T16:47:35.011Z,21.00
2023-05-19T16:53:56.769Z,26.20
2023-05-19T16:59:38.285Z,28.40
2023-05-19T17:06:03.370Z,27.90
2023-05-19T17:12:25.215Z,24.60
2023-05-19T17:18:44.744Z,25.00
2023-05-19T17:25:07.743Z,26.30
2023-05-19T17:31:52.087Z,25.30
2023-05-19T17:37:38.461Z,25.30
2023-05-19T17:43:17.585Z,27.00
2023-05-19T17:48:40.530Z,29.40
2023-05-19T17:53:46.528Z,29.10
2023-05-19T19:10:11.245Z,14.90
2023-05-19T19:16:32.744Z,20.50
2023-05-19T19:22:53.830Z,22.10
2023-05-19T19:29:14.877Z,22.30
2023-05-19T19:35:35.888Z,22.60
2023-05-19T19:41:57.162Z,20.20
2023-05-19T19:48:18.165Z,20.00
2023-05-19T19:54:39.207Z,22.30
2023-05-19T19:59:40.987Z,21.80
2023-05-19T20:04:42.338Z,20.90
2023-05-19T20:10:43.566Z,23.00
2023-05-19T20:17:04.604Z,18.00
2023-05-19T20:22:25.845Z,20.60
2023-05-19T20:28:27.259Z,22.30
2023-05-19T20:34:48.310Z,24.90
2023-05-19T20:40:09.784Z,22.10
2023-05-19T20:45:11.475Z,22.00
2023-05-19T20:50:13.097Z,24.30
2023-05-19T20:55:14.457Z,25.90
2023-05-19T21:00:16.149Z,22.90
2023-05-19T21:06:17.414Z,20.50
2023-05-19T21:12:58.493Z,25.70
2023-05-19T21:19:19.676Z,26.90
2023-05-19T21:25:40.863Z,26.30
2023-05-19T21:32:01.865Z,25.90
2023-05-19T21:37:23.441Z,24.60
2023-05-19T21:42:44.390Z,26.60
2023-05-19T21:47:49.567Z,22.80
2023-05-19T21:52:54.873Z,24.20
2023-05-19T21:57:59.587Z,25.20
2023-05-19T22:03:02.441Z,27.00
2023-05-19T22:08:04.605Z,27.00
2023-05-19T22:13:05.968Z,19.40
2023-05-19T22:18:07.610Z,21.50
2023-05-19T22:23:09.132Z,20.60
2023-05-19T22:28:10.526Z,19.40
2023-05-19T22:33:12.580Z,17.90
2023-05-19T22:38:14.236Z,23.20
2023-05-19T22:43:15.796Z,21.60
2023-05-19T22:48:17.186Z,23.10
2023-05-19T22:53:18.674Z,24.50
2023-05-19T22:58:20.623Z,27.40
2023-05-19T23:03:21.865Z,28.10
2023-05-19T23:09:23.664Z,24.20
2023-05-19T23:15:57.094Z,24.00
2023-05-19T23:22:18.216Z,26.60
2023-05-19T23:28:39.683Z,25.80
2023-05-19T23:34:01.207Z,24.00
2023-05-19T23:39:05.552Z,25.90
2023-05-19T23:44:07.931Z,25.50
2023-05-19T23:49:10.846Z,23.60
2023-05-19T23:54:12.096Z,25.30
2023-05-19T23:59:13.992Z,24.60
